createdAt,value
2022-12-17T00:00:48.931Z,3.20
2022-12-17T00:03:34.660Z,3.20
2022-12-17T00:06:27.637Z,3.20
2022-12-17T00:09:13.070Z,3.10
2022-12-17T00:11:58.119Z,3.10
2022-12-17T00:14:43.330Z,3.10
2022-12-17T00:17:28.754Z,3.10
2022-12-17T00:20:13.889Z,3.10
2022-12-17T00:22:59.068Z,3.00
2022-12-17T00:25:44.661Z,3.00
2022-12-17T00:28:33.430Z,3.00
2022-12-17T00:31:18.947Z,3.00
2022-12-17T00:34:05.270Z,3.00
2022-12-17T00:37:00.686Z,3.00
2022-12-17T00:43:36.401Z,2.90
2022-12-17T00:46:22.257Z,2.90
2022-12-17T00:49:07.357Z,2.90
2022-12-17T00:51:52.527Z,2.90
2022-12-17T00:54:37.873Z,2.90
2022-12-17T00:57:22.712Z,2.80
2022-12-17T01:00:07.812Z,2.90
2022-12-17T01:02:53.019Z,2.80
2022-12-17T01:05:39.300Z,2.80
2022-12-17T01:08:29.107Z,2.80
2022-12-17T01:11:27.645Z,2.80
2022-12-17T01:14:12.883Z,2.80
2022-12-17T01:16:57.722Z,2.80
2022-12-17T01:19:43.068Z,2.70
2022-12-17T01:22:28.316Z,2.80
2022-12-17T01:25:13.551Z,2.70
2022-12-17T01:28:00.412Z,2.70
2022-12-17T01:30:45.831Z,2.70
2022-12-17T01:33:30.751Z,2.70
2022-12-17T01:36:16.810Z,2.70
2022-12-17T01:39:02.585Z,2.70
2022-12-17T01:42:04.793Z,2.70
2022-12-17T01:45:14.286Z,2.60
2022-12-17T01:48:17.811Z,2.60
2022-12-17T01:51:08.151Z,2.60
2022-12-17T01:53:56.508Z,2.60
2022-12-17T01:56:42.150Z,2.60
2022-12-17T01:59:29.034Z,2.60
2022-12-17T02:02:14.678Z,2.60
2022-12-17T02:05:00.307Z,2.50
2022-12-17T02:08:06.024Z,2.50
2022-12-17T02:11:32.751Z,2.50
2022-12-17T02:14:41.474Z,2.50
2022-12-17T02:17:31.262Z,2.50
2022-12-17T02:20:41.344Z,2.50
2022-12-17T02:23:48.215Z,2.50
2022-12-17T02:26:58.158Z,2.50
2022-12-17T02:29:45.678Z,2.50
2022-12-17T02:32:32.294Z,2.40
2022-12-17T02:35:20.335Z,2.40
2022-12-17T02:38:07.208Z,2.40
2022-12-17T02:40:57.037Z,2.40
2022-12-17T02:43:44.505Z,2.40
2022-12-17T02:46:31.202Z,2.40
2022-12-17T02:49:16.627Z,2.40
2022-12-17T02:52:01.699Z,2.40
2022-12-17T02:54:56.195Z,2.40
2022-12-17T02:57:43.961Z,2.40
2022-12-17T03:00:30.636Z,2.30
2022-12-17T03:03:15.458Z,2.30
2022-12-17T03:06:00.738Z,2.30
2022-12-17T03:08:45.808Z,2.30
2022-12-17T03:11:30.808Z,2.30
2022-12-17T03:14:17.480Z,2.30
2022-12-17T03:17:02.754Z,2.30
2022-12-17T03:19:48.012Z,2.20
2022-12-17T03:22:33.163Z,2.20
2022-12-17T03:25:18.468Z,2.20
2022-12-17T03:28:03.344Z,2.20
2022-12-17T03:30:49.247Z,2.20
2022-12-17T03:33:35.454Z,2.20
2022-12-17T03:36:20.829Z,2.20
2022-12-17T03:39:06.074Z,2.20
2022-12-17T03:41:51.335Z,2.20
2022-12-17T03:44:36.716Z,2.20
2022-12-17T03:47:21.856Z,2.20
2022-12-17T03:50:07.043Z,2.10
2022-12-17T03:52:52.306Z,2.10
2022-12-17T03:55:37.172Z,2.20
2022-12-17T03:58:22.289Z,2.10
2022-12-17T04:01:07.448Z,2.10
2022-12-17T04:03:52.479Z,2.10
2022-12-17T04:06:37.905Z,2.10
2022-12-17T04:09:23.130Z,2.10
2022-12-17T04:12:08.392Z,2.00
2022-12-17T04:14:53.406Z,2.00
2022-12-17T04:17:38.798Z,2.00
2022-12-17T04:20:34.767Z,2.00
2022-12-17T04:23:20.035Z,2.00
2022-12-17T04:26:05.138Z,2.00
2022-12-17T04:28:50.578Z,2.00
2022-12-17T04:31:35.823Z,2.00
2022-12-17T04:34:22.727Z,2.00
2022-12-17T04:37:08.241Z,2.00
2022-12-17T04:39:53.282Z,1.90
2022-12-17T04:42:38.260Z,2.00
2022-12-17T04:45:23.931Z,2.00
2022-12-17T04:48:08.950Z,2.00
2022-12-17T04:50:54.434Z,1.90
2022-12-17T04:53:39.545Z,1.90
2022-12-17T04:56:25.394Z,1.90
2022-12-17T04:59:10.736Z,1.90
2022-12-17T05:01:55.863Z,1.90
2022-12-17T05:04:54.922Z,1.90
2022-12-17T05:07:40.199Z,1.90
2022-12-17T05:10:25.700Z,1.90
2022-12-17T05:13:17.218Z,1.90
2022-12-17T05:16:02.253Z,1.80
2022-12-17T05:18:47.849Z,1.80
2022-12-17T05:21:33.743Z,1.90
2022-12-17T05:24:19.229Z,1.80
2022-12-17T05:27:04.124Z,1.80
2022-12-17T05:29:48.929Z,1.80
2022-12-17T05:32:34.242Z,1.80
2022-12-17T05:35:19.415Z,1.80
2022-12-17T05:38:04.637Z,1.80
2022-12-17T05:40:49.754Z,1.80
2022-12-17T05:43:35.217Z,1.80
2022-12-17T05:46:21.088Z,1.80
2022-12-17T05:49:06.250Z,1.70
2022-12-17T05:51:51.590Z,1.70
2022-12-17T05:54:36.953Z,1.70
2022-12-17T05:57:22.270Z,1.80
2022-12-17T06:00:07.695Z,1.70
2022-12-17T06:02:52.786Z,1.70
2022-12-17T06:05:37.776Z,1.70
2022-12-17T06:08:27.477Z,1.70
2022-12-17T06:11:12.831Z,1.70
2022-12-17T06:13:58.167Z,1.70
2022-12-17T06:16:43.287Z,1.60
2022-12-17T06:19:28.485Z,1.60
2022-12-17T06:22:13.747Z,1.60
2022-12-17T06:24:59.164Z,1.60
2022-12-17T06:27:44.439Z,1.60
2022-12-17T06:30:30.332Z,1.60
2022-12-17T06:33:28.813Z,1.60
2022-12-17T06:36:21.648Z,1.60
2022-12-17T06:39:07.655Z,1.60
2022-12-17T06:41:52.945Z,1.60
2022-12-17T06:44:45.841Z,1.50
2022-12-17T06:47:30.902Z,1.60
2022-12-17T06:50:15.974Z,1.50
2022-12-17T06:53:01.369Z,1.50
2022-12-17T06:55:46.470Z,1.50
2022-12-17T06:58:31.754Z,1.50
2022-12-17T07:01:17.021Z,1.50
2022-12-17T07:04:02.189Z,1.50
2022-12-17T07:06:47.419Z,1.50
2022-12-17T07:09:32.751Z,1.50
2022-12-17T07:12:18.073Z,1.50
2022-12-17T07:15:03.091Z,1.50
2022-12-17T07:17:48.646Z,1.40
2022-12-17T07:20:34.175Z,1.40
2022-12-17T07:23:19.125Z,1.40
2022-12-17T07:26:04.377Z,1.40
2022-12-17T07:28:49.234Z,1.40
2022-12-17T07:31:34.167Z,1.40
2022-12-17T07:34:19.312Z,1.40
2022-12-17T07:37:04.701Z,1.40
2022-12-17T07:39:49.907Z,1.40
2022-12-17T07:42:35.007Z,1.40
2022-12-17T07:45:20.408Z,1.40
2022-12-17T07:48:11.763Z,1.40
2022-12-17T07:50:57.169Z,1.30
2022-12-17T07:53:42.158Z,1.30
2022-12-17T07:56:27.494Z,1.30
2022-12-17T07:59:23.456Z,1.30
2022-12-17T08:02:08.874Z,1.30
2022-12-17T08:04:55.427Z,1.30
2022-12-17T08:07:40.554Z,1.30
2022-12-17T08:10:26.457Z,1.30
2022-12-17T08:13:20.737Z,1.30
2022-12-17T08:16:06.134Z,1.30
2022-12-17T08:18:51.604Z,1.30
2022-12-17T08:21:36.860Z,1.30
2022-12-17T08:24:22.061Z,1.30
2022-12-17T08:27:06.946Z,1.30
2022-12-17T08:29:52.309Z,1.30
2022-12-17T08:32:37.515Z,1.30
2022-12-17T08:35:23.178Z,1.30
2022-12-17T08:38:08.262Z,1.30
2022-12-17T08:40:53.737Z,1.30
2022-12-17T08:43:49.976Z,1.30
2022-12-17T08:46:35.391Z,1.30
2022-12-17T08:49:20.530Z,1.40
2022-12-17T08:52:10.429Z,1.30
2022-12-17T08:54:55.918Z,1.40
2022-12-17T08:57:41.220Z,1.40
2022-12-17T09:00:27.486Z,1.40
2022-12-17T09:03:19.538Z,1.40
2022-12-17T09:06:04.724Z,1.40
2022-12-17T09:08:50.576Z,1.40
2022-12-17T09:11:36.005Z,1.50
2022-12-17T09:14:21.008Z,1.50
2022-12-17T09:17:06.102Z,1.50
2022-12-17T09:19:51.314Z,1.50
2022-12-17T09:22:36.479Z,1.60
2022-12-17T09:25:22.011Z,1.60
2022-12-17T09:28:07.142Z,1.60
2022-12-17T09:30:52.335Z,1.70
2022-12-17T09:33:38.401Z,1.70
2022-12-17T09:36:29.577Z,1.70
2022-12-17T09:39:14.951Z,1.80
2022-12-17T09:42:39.380Z,1.80
2022-12-17T09:45:48.571Z,1.90
2022-12-17T09:49:05.858Z,1.90
2022-12-17T09:51:54.039Z,2.00
2022-12-17T09:55:01.008Z,2.00
2022-12-17T09:57:51.297Z,2.10
2022-12-17T10:00:45.447Z,2.10
2022-12-17T10:03:35.674Z,2.20
2022-12-17T10:06:27.856Z,2.20
2022-12-17T10:09:15.202Z,2.30
2022-12-17T10:12:00.607Z,2.30
2022-12-17T10:14:45.701Z,2.40
2022-12-17T10:17:41.127Z,2.30
2022-12-17T10:20:49.423Z,2.40
2022-12-17T10:23:45.514Z,2.50
2022-12-17T10:26:40.379Z,2.60
2022-12-17T10:29:47.810Z,2.60
2022-12-17T10:32:34.007Z,2.60
2022-12-17T10:35:25.230Z,2.70
2022-12-17T10:38:10.576Z,2.70
2022-12-17T10:40:55.676Z,2.70
2022-12-17T10:43:48.295Z,2.70
2022-12-17T10:46:44.387Z,2.80
2022-12-17T10:49:35.952Z,2.90
2022-12-17T10:52:43.947Z,3.00
2022-12-17T10:55:44.994Z,3.10
2022-12-17T10:58:39.069Z,3.10
2022-12-17T11:01:26.703Z,3.10
2022-12-17T11:04:14.317Z,3.20
2022-12-17T11:07:04.455Z,3.30
2022-12-17T11:10:08.615Z,3.40
2022-12-17T11:13:02.913Z,3.60
2022-12-17T11:15:47.825Z,3.60
2022-12-17T11:18:39.136Z,3.70
2022-12-17T11:21:30.756Z,3.70
2022-12-17T11:24:22.204Z,3.70
2022-12-17T11:27:12.156Z,3.80
2022-12-17T11:29:57.158Z,3.70
2022-12-17T11:33:34.507Z,4.00
2022-12-17T11:36:35.255Z,4.00
2022-12-17T11:39:35.543Z,3.90
2022-12-17T11:42:42.657Z,4.00
2022-12-17T11:45:36.285Z,4.10
2022-12-17T11:48:35.025Z,4.10
2022-12-17T11:52:00.172Z,4.10
2022-12-17T11:55:37.610Z,4.20
2022-12-17T11:58:44.530Z,4.30
2022-12-17T12:01:51.783Z,4.40
2022-12-17T12:05:04.576Z,4.30
2022-12-17T12:08:25.180Z,4.40
2022-12-17T12:11:31.247Z,4.50
2022-12-17T12:14:35.860Z,4.50
2022-12-17T12:17:46.913Z,4.50
2022-12-17T12:20:50.748Z,4.60
2022-12-17T12:23:48.139Z,4.60
2022-12-17T12:26:37.811Z,4.70
2022-12-17T12:29:43.180Z,4.70
2022-12-17T12:32:49.446Z,4.70
2022-12-17T12:35:40.041Z,4.80
2022-12-17T12:38:45.899Z,4.90
2022-12-17T12:41:53.484Z,4.90
2022-12-17T12:44:53.372Z,5.00
2022-12-17T12:48:00.798Z,5.00
2022-12-17T12:50:56.720Z,5.00
2022-12-17T12:53:42.662Z,5.10
2022-12-17T12:56:44.423Z,5.20
2022-12-17T12:59:40.326Z,5.10
2022-12-17T13:02:47.722Z,5.20
2022-12-17T13:05:35.266Z,5.30
2022-12-17T13:08:23.582Z,5.30
2022-12-17T13:10:52.737Z,5.30
2022-12-17T13:13:20.595Z,5.30
2022-12-17T13:15:51.613Z,5.40
2022-12-17T13:18:34.417Z,5.40
2022-12-17T13:21:22.884Z,5.50
2022-12-17T13:23:49.517Z,5.50
2022-12-17T13:26:23.783Z,5.60
2022-12-17T13:28:56.544Z,5.60
2022-12-17T13:31:28.078Z,5.60
2022-12-17T13:34:32.808Z,5.60
2022-12-17T13:37:13.967Z,5.60
2022-12-17T13:39:51.877Z,5.60
2022-12-17T13:42:38.239Z,5.70
2022-12-17T13:45:05.693Z,5.70
2022-12-17T13:47:35.162Z,5.80
2022-12-17T13:50:32.853Z,5.80
2022-12-17T13:52:51.641Z,5.80
2022-12-17T13:55:21.909Z,5.80
2022-12-17T13:57:50.335Z,5.80
2022-12-17T14:00:29.805Z,5.80
2022-12-17T14:02:57.136Z,5.80
2022-12-17T14:05:33.209Z,5.80
2022-12-17T14:08:03.203Z,5.80
2022-12-17T14:10:29.993Z,5.70
2022-12-17T14:13:08.476Z,5.70
2022-12-17T14:15:35.354Z,5.60
2022-12-17T14:18:03.372Z,5.70
2022-12-17T14:20:37.060Z,5.70
2022-12-17T14:23:12.800Z,5.70
2022-12-17T14:25:40.927Z,5.60
2022-12-17T14:28:23.023Z,5.50
2022-12-17T14:31:25.131Z,5.60
2022-12-17T14:33:38.360Z,5.60
2022-12-17T14:36:22.463Z,5.60
2022-12-17T14:39:02.781Z,5.60
2022-12-17T14:41:55.605Z,5.50
2022-12-17T14:44:25.447Z,5.60
2022-12-17T14:46:55.762Z,5.60
2022-12-17T14:49:22.740Z,5.60
2022-12-17T14:51:50.165Z,5.60
2022-12-17T14:54:25.958Z,5.60
2022-12-17T14:56:54.752Z,5.50
2022-12-17T14:59:24.619Z,5.50
2022-12-17T15:01:56.245Z,5.50
2022-12-17T15:04:23.805Z,5.50
2022-12-17T15:06:54.323Z,5.50
2022-12-17T15:09:21.081Z,5.50
2022-12-17T15:11:47.886Z,5.50
2022-12-17T15:14:16.747Z,5.40
2022-12-17T15:16:43.477Z,5.40
2022-12-17T15:19:10.164Z,5.50
2022-12-17T15:21:36.926Z,5.40
2022-12-17T15:24:04.226Z,5.40
2022-12-17T15:26:30.863Z,5.40
2022-12-17T15:28:57.515Z,5.30
2022-12-17T15:31:26.109Z,5.40
2022-12-17T15:33:59.186Z,5.40
2022-12-17T15:36:25.813Z,5.30
2022-12-17T15:38:52.571Z,5.30
2022-12-17T15:41:38.068Z,5.30
2022-12-17T15:44:04.854Z,5.20
2022-12-17T15:46:31.514Z,5.20
2022-12-17T15:48:58.146Z,5.20
2022-12-17T15:51:24.850Z,5.20
2022-12-17T15:53:51.827Z,5.10
2022-12-17T15:56:29.127Z,5.10
2022-12-17T15:58:59.418Z,5.00
2022-12-17T16:01:26.429Z,5.00
2022-12-17T16:03:53.557Z,5.00
2022-12-17T16:06:20.248Z,5.00
2022-12-17T16:08:46.831Z,5.00
2022-12-17T16:11:15.494Z,5.00
2022-12-17T16:13:42.231Z,4.90
2022-12-17T16:16:09.050Z,4.90
2022-12-17T16:18:38.670Z,4.80
2022-12-17T16:21:07.456Z,4.80
2022-12-17T16:23:34.369Z,4.80
2022-12-17T16:26:02.989Z,4.80
2022-12-17T16:28:30.058Z,4.80
2022-12-17T16:31:08.164Z,4.70
2022-12-17T16:33:37.227Z,4.70
2022-12-17T16:36:05.846Z,4.70
2022-12-17T16:38:33.273Z,4.70
2022-12-17T16:41:02.086Z,4.60
2022-12-17T16:43:33.579Z,4.60
2022-12-17T16:46:00.258Z,4.50
2022-12-17T16:48:26.944Z,4.50
2022-12-17T16:50:53.527Z,4.50
2022-12-17T16:53:20.437Z,4.40
2022-12-17T16:55:49.236Z,4.40
2022-12-17T16:58:17.744Z,4.40
2022-12-17T17:00:45.739Z,4.40
2022-12-17T17:03:12.606Z,4.30
2022-12-17T17:05:40.104Z,4.30
2022-12-17T17:08:07.077Z,4.30
2022-12-17T17:10:36.952Z,4.30
2022-12-17T17:13:04.252Z,4.30
2022-12-17T17:15:31.258Z,4.30
2022-12-17T17:18:02.045Z,4.20
2022-12-17T17:20:32.493Z,4.20
2022-12-17T17:22:59.813Z,4.20
2022-12-17T17:25:43.959Z,4.20
2022-12-17T17:28:13.770Z,3.80
2022-12-17T17:30:40.450Z,3.60
2022-12-17T17:33:07.042Z,3.50
2022-12-17T17:35:33.729Z,3.60
2022-12-17T17:38:00.979Z,3.70
2022-12-17T17:40:27.640Z,3.70
2022-12-17T17:42:54.208Z,3.70
2022-12-17T17:45:20.781Z,3.70
2022-12-17T17:47:47.354Z,3.70
2022-12-17T17:50:13.921Z,3.70
2022-12-17T17:52:40.592Z,3.70
2022-12-17T17:55:07.786Z,3.70
2022-12-17T17:57:34.690Z,3.70
2022-12-17T18:00:01.389Z,3.70
2022-12-17T18:02:28.070Z,3.70
2022-12-17T18:04:54.940Z,3.70
2022-12-17T18:07:25.990Z,3.70
2022-12-17T18:09:53.997Z,3.60
2022-12-17T18:12:39.457Z,3.60
2022-12-17T18:15:15.954Z,3.60
2022-12-17T18:17:45.869Z,3.50
2022-12-17T18:20:13.613Z,3.50
2022-12-17T18:22:40.204Z,3.50
2022-12-17T18:25:07.021Z,3.50
2022-12-17T18:27:33.603Z,3.50
2022-12-17T18:30:00.239Z,3.50
2022-12-17T18:32:26.887Z,3.50
2022-12-17T18:34:53.587Z,3.50
2022-12-17T18:37:20.322Z,3.50
2022-12-17T18:39:47.419Z,3.40
2022-12-17T18:42:32.551Z,3.40
2022-12-17T18:44:59.191Z,3.40
2022-12-17T18:47:25.973Z,3.40
2022-12-17T18:49:52.657Z,3.40
2022-12-17T18:52:19.558Z,3.40
2022-12-17T18:54:46.239Z,3.30
2022-12-17T18:57:13.276Z,3.30
2022-12-17T18:59:40.996Z,3.30
2022-12-17T19:02:15.254Z,3.30
2022-12-17T19:04:41.986Z,3.20
2022-12-17T19:07:09.355Z,3.30
2022-12-17T19:09:36.569Z,3.20
2022-12-17T19:12:07.801Z,3.20
2022-12-17T19:14:35.160Z,3.20
2022-12-17T19:17:02.529Z,3.20
2022-12-17T19:19:29.171Z,3.20
2022-12-17T19:21:56.138Z,3.20
2022-12-17T19:24:23.448Z,3.10
2022-12-17T19:26:51.242Z,3.10
2022-12-17T19:29:19.595Z,3.10
2022-12-17T19:31:46.283Z,3.10
2022-12-17T19:34:14.768Z,3.10
2022-12-17T19:36:42.273Z,3.10
2022-12-17T19:39:12.554Z,3.00
2022-12-17T19:41:39.390Z,3.00
2022-12-17T19:44:08.642Z,3.00
2022-12-17T19:46:36.454Z,3.00
2022-12-17T19:49:04.724Z,3.00
2022-12-17T19:51:32.253Z,3.00
2022-12-17T19:54:06.217Z,3.00
2022-12-17T19:56:35.448Z,2.90
2022-12-17T19:59:07.165Z,2.90
2022-12-17T20:01:36.792Z,2.90
2022-12-17T20:04:04.836Z,2.90
2022-12-17T20:06:33.895Z,2.90
2022-12-17T20:09:02.109Z,2.80
2022-12-17T20:11:35.432Z,2.90
2022-12-17T20:14:13.155Z,2.80
2022-12-17T20:16:43.091Z,2.80
2022-12-17T20:19:18.325Z,2.80
2022-12-17T20:21:45.094Z,2.80
2022-12-17T20:24:12.412Z,2.70
2022-12-17T20:26:40.240Z,2.80
2022-12-17T20:29:07.661Z,2.80
2022-12-17T20:31:34.493Z,2.70
2022-12-17T20:34:03.582Z,2.70
2022-12-17T20:36:30.356Z,2.70
2022-12-17T20:38:57.150Z,2.70
2022-12-17T20:41:26.385Z,2.70
2022-12-17T20:43:53.593Z,2.60
2022-12-17T20:46:22.095Z,2.60
2022-12-17T20:48:49.384Z,2.60
2022-12-17T20:51:19.811Z,2.60
2022-12-17T20:53:50.724Z,2.50
2022-12-17T20:56:23.482Z,2.40
2022-12-17T20:58:54.143Z,2.40
2022-12-17T21:01:22.769Z,2.30
2022-12-17T21:03:51.598Z,2.30
2022-12-17T21:06:21.668Z,2.30
2022-12-17T21:08:50.925Z,2.30
2022-12-17T21:11:23.743Z,2.30
2022-12-17T21:13:51.045Z,2.30
2022-12-17T21:16:23.872Z,2.30
2022-12-17T21:18:50.475Z,2.30
2022-12-17T21:21:20.366Z,2.30
2022-12-17T21:23:48.555Z,2.20
2022-12-17T21:26:21.005Z,2.20
2022-12-17T21:28:49.382Z,2.20
2022-12-17T21:31:35.570Z,2.20
2022-12-17T21:34:05.010Z,2.20
2022-12-17T21:36:33.363Z,2.20
2022-12-17T21:39:00.477Z,2.20
2022-12-17T21:41:32.967Z,2.20
2022-12-17T21:44:05.934Z,2.20
2022-12-17T21:46:33.020Z,2.20
2022-12-17T21:49:01.684Z,2.10
2022-12-17T21:51:29.687Z,2.10
2022-12-17T21:53:59.447Z,2.10
2022-12-17T21:56:26.847Z,2.10
2022-12-17T21:59:01.155Z,2.10
2022-12-17T22:01:32.147Z,2.10
2022-12-17T22:04:00.439Z,2.00
2022-12-17T22:06:34.075Z,2.00
2022-12-17T22:09:07.822Z,2.00
2022-12-17T22:11:41.084Z,2.00
2022-12-17T22:14:17.057Z,2.00
2022-12-17T22:16:48.332Z,2.00
2022-12-17T22:19:21.971Z,1.90
2022-12-17T22:21:52.293Z,1.90
2022-12-17T22:24:24.999Z,1.90
2022-12-17T22:26:52.341Z,1.90
2022-12-17T22:29:37.325Z,1.90
2022-12-17T22:32:23.241Z,1.90
2022-12-17T22:35:29.896Z,1.90
2022-12-17T22:43:07.036Z,1.90
2022-12-17T22:44:35.922Z,1.80
2022-12-17T22:44:46.467Z,1.80
2022-12-17T22:46:19.101Z,1.80
2022-12-17T22:48:45.822Z,1.80
2022-12-17T22:51:18.679Z,1.80
2022-12-17T22:53:53.612Z,1.80
2022-12-17T22:56:55.281Z,1.70
2022-12-17T22:59:08.170Z,1.70
2022-12-17T23:01:35.220Z,1.70
2022-12-17T23:04:03.686Z,1.70
2022-12-17T23:06:30.537Z,1.70
2022-12-17T23:08:57.685Z,1.70
2022-12-17T23:11:26.961Z,1.70
2022-12-17T23:13:54.289Z,1.60
2022-12-17T23:16:21.242Z,1.60
2022-12-17T23:18:49.024Z,1.60
2022-12-17T23:21:18.593Z,1.60
2022-12-17T23:23:46.310Z,1.60
2022-12-17T23:26:22.810Z,1.60
2022-12-17T23:28:53.872Z,1.60
2022-12-17T23:31:21.357Z,1.60
2022-12-17T23:33:48.301Z,1.60
2022-12-17T23:36:17.840Z,1.50
2022-12-17T23:38:45.632Z,1.50
2022-12-17T23:41:14.770Z,1.50
2022-12-17T23:43:41.507Z,1.50
2022-12-17T23:46:09.638Z,1.50
2022-12-17T23:48:44.842Z,1.50
2022-12-17T23:51:17.563Z,1.50
2022-12-17T23:53:44.268Z,1.50
2022-12-17T23:56:16.524Z,1.40
2022-12-17T23:58:44.330Z,1.40
